createdAt,value
2018-04-14T00:00:17.399Z,64.05
2018-04-14T00:02:44.902Z,63.72
2018-04-14T00:05:12.360Z,65.65
2018-04-14T00:07:39.822Z,68.37
2018-04-14T00:10:07.284Z,66.45
2018-04-14T00:12:34.782Z,70.45
2018-04-14T00:15:02.267Z,70.25
2018-04-14T00:17:29.747Z,73.60
2018-04-14T00:19:57.212Z,73.93
2018-04-14T00:22:24.664Z,71.78
2018-04-14T00:24:52.124Z,70.60
2018-04-14T00:27:19.580Z,72.97
2018-04-14T00:29:47.103Z,70.00
2018-04-14T00:32:15.347Z,72.15
2018-04-14T00:34:42.824Z,71.03
2018-04-14T00:37:10.317Z,70.47
2018-04-14T00:39:37.811Z,71.40
2018-04-14T00:42:05.228Z,73.60
2018-04-14T00:44:32.717Z,71.47
2018-04-14T00:47:00.180Z,67.40
2018-04-14T00:49:27.632Z,71.30
2018-04-14T00:51:55.092Z,68.75
2018-04-14T00:54:22.560Z,70.28
2018-04-14T00:56:50.038Z,72.15
2018-04-14T00:59:17.527Z,70.17
2018-04-14T01:01:44.984Z,71.07
2018-04-14T01:04:12.465Z,68.35
2018-04-14T01:06:39.920Z,67.70
2018-04-14T01:09:07.420Z,69.03
2018-04-14T01:11:34.899Z,70.72
2018-04-14T01:14:02.453Z,69.13
2018-04-14T01:16:30.026Z,68.25
2018-04-14T01:18:57.502Z,67.70
2018-04-14T01:21:24.982Z,69.20
2018-04-14T01:23:52.446Z,68.50
2018-04-14T01:26:19.930Z,67.12
2018-04-14T01:28:48.180Z,68.20
2018-04-14T01:31:15.649Z,73.00
2018-04-14T01:33:43.116Z,72.62
2018-04-14T01:36:10.605Z,68.95
2018-04-14T01:38:38.063Z,72.25
2018-04-14T01:41:05.545Z,71.28
2018-04-14T01:43:33.031Z,69.53
2018-04-14T01:46:00.584Z,69.60
2018-04-14T01:48:28.153Z,66.45
2018-04-14T01:50:55.727Z,68.87
2018-04-14T01:53:23.303Z,67.00
2018-04-14T01:55:50.870Z,62.78
2018-04-14T01:58:18.346Z,64.60
2018-04-14T02:00:45.902Z,62.20
2018-04-14T02:03:13.364Z,59.33
2018-04-14T02:05:40.961Z,57.40
2018-04-14T02:08:08.515Z,61.47
2018-04-14T02:10:35.980Z,58.70
2018-04-14T02:13:03.449Z,57.95
2018-04-14T02:15:30.900Z,54.08
2018-04-14T02:17:58.367Z,55.40
2018-04-14T02:20:25.866Z,53.70
2018-04-14T02:22:53.336Z,56.97
2018-04-14T02:25:20.923Z,55.70
2018-04-14T02:27:49.892Z,53.50
2018-04-14T02:30:17.359Z,52.13
2018-04-14T02:32:44.866Z,51.25
2018-04-14T02:35:12.335Z,50.28
2018-04-14T02:37:39.887Z,48.07
2018-04-14T02:40:07.350Z,49.83
2018-04-14T02:42:34.821Z,49.65
2018-04-14T02:45:02.310Z,48.55
2018-04-14T02:47:29.773Z,48.55
2018-04-14T02:49:57.245Z,49.65
2018-04-14T02:52:24.789Z,46.17
2018-04-14T02:54:52.276Z,49.73
2018-04-14T02:57:19.758Z,47.33
2018-04-14T02:59:47.221Z,44.60
2018-04-14T03:02:14.682Z,46.80
2018-04-14T03:04:42.144Z,46.15
2018-04-14T03:07:09.686Z,46.63
2018-04-14T03:09:37.890Z,45.47
2018-04-14T03:12:05.368Z,46.42
2018-04-14T03:14:32.815Z,44.13
2018-04-14T03:17:00.294Z,46.35
2018-04-14T03:19:27.806Z,45.07
2018-04-14T03:21:55.374Z,45.03
2018-04-14T03:24:22.838Z,44.75
2018-04-14T03:26:50.399Z,44.30
2018-04-14T03:29:17.872Z,42.00
2018-04-14T03:31:45.358Z,43.00
2018-04-14T03:34:12.832Z,44.35
2018-04-14T03:36:40.566Z,45.75
2018-04-14T03:39:08.019Z,44.15
2018-04-14T03:41:35.538Z,44.60
2018-04-14T03:44:02.990Z,43.00
2018-04-14T03:46:30.445Z,41.00
2018-04-14T03:48:57.936Z,44.58
2018-04-14T03:51:25.412Z,42.42
2018-04-14T03:53:52.898Z,43.20
2018-04-14T03:56:20.366Z,42.97
2018-04-14T03:58:47.912Z,41.75
2018-04-14T04:01:15.360Z,43.65
2018-04-14T04:03:42.866Z,43.63
2018-04-14T04:06:10.338Z,44.25
2018-04-14T04:08:38.006Z,43.63
2018-04-14T04:11:05.478Z,42.85
2018-04-14T04:13:32.958Z,45.00
2018-04-14T04:16:00.447Z,45.22
2018-04-14T04:18:39.806Z,44.70
2018-04-14T04:21:34.676Z,42.62
2018-04-14T04:24:14.034Z,44.53
2018-04-14T04:26:41.602Z,44.85
2018-04-14T04:29:09.177Z,43.25
2018-04-14T04:31:36.746Z,43.72
2018-04-14T04:34:04.301Z,43.58
2018-04-14T04:36:32.630Z,44.00
2018-04-14T04:39:00.096Z,45.15
2018-04-14T04:41:27.564Z,44.17
2018-04-14T04:43:55.016Z,46.03
2018-04-14T04:46:22.475Z,44.80
2018-04-14T04:48:49.981Z,45.70
2018-04-14T04:51:17.409Z,46.88
2018-04-14T04:53:44.892Z,44.58
2018-04-14T04:56:12.586Z,44.17
2018-04-14T04:58:40.136Z,43.53
2018-04-14T05:01:07.613Z,44.08
2018-04-14T05:03:35.884Z,45.20
2018-04-14T05:06:03.356Z,42.72
2018-04-14T05:08:30.832Z,44.03
2018-04-14T05:10:58.410Z,44.40
2018-04-14T05:13:25.872Z,43.67
2018-04-14T05:15:53.343Z,43.80
2018-04-14T05:18:20.920Z,47.10
2018-04-14T05:20:48.426Z,44.17
2018-04-14T05:23:16.662Z,44.10
2018-04-14T05:25:44.104Z,46.00
2018-04-14T05:28:11.586Z,46.58
2018-04-14T05:30:39.063Z,46.05
2018-04-14T05:33:06.566Z,46.72
2018-04-14T05:35:34.139Z,45.60
2018-04-14T05:38:01.710Z,46.03
2018-04-14T05:40:29.175Z,45.45
2018-04-14T05:42:56.767Z,44.90
2018-04-14T05:45:24.221Z,44.33
2018-04-14T05:47:51.768Z,45.08
2018-04-14T05:50:19.254Z,44.83
2018-04-14T05:52:46.722Z,43.58
2018-04-14T05:55:14.198Z,44.60
2018-04-14T05:57:41.682Z,41.80
2018-04-14T06:00:09.238Z,42.50
2018-04-14T06:02:36.795Z,42.17
2018-04-14T06:05:04.254Z,43.17
2018-04-14T06:07:31.722Z,42.37
2018-04-14T06:09:59.215Z,42.53
2018-04-14T06:12:26.771Z,42.25
2018-04-14T06:14:54.265Z,42.13
2018-04-14T06:17:21.715Z,41.17
2018-04-14T06:19:49.178Z,41.10
2018-04-14T06:22:16.726Z,42.75
2018-04-14T06:24:44.898Z,40.47
2018-04-14T06:27:12.522Z,41.53
2018-04-14T06:29:39.996Z,40.97
2018-04-14T06:32:07.459Z,41.42
2018-04-14T06:34:34.922Z,40.28
2018-04-14T06:37:02.377Z,41.60
2018-04-14T06:39:29.823Z,42.58
2018-04-14T06:41:57.298Z,43.23
2018-04-14T06:44:24.858Z,41.15
2018-04-14T06:46:52.295Z,40.65
2018-04-14T06:49:19.860Z,42.15
2018-04-14T06:51:47.413Z,41.70
2018-04-14T06:54:14.859Z,43.08
2018-04-14T06:56:42.328Z,41.58
2018-04-14T06:59:09.815Z,41.08
2018-04-14T07:01:37.269Z,41.70
2018-04-14T07:04:04.728Z,40.85
2018-04-14T07:06:32.202Z,42.72
2018-04-14T07:08:59.695Z,41.50
2018-04-14T07:11:27.178Z,41.97
2018-04-14T07:13:54.660Z,40.35
2018-04-14T07:16:22.113Z,40.90
2018-04-14T07:18:49.578Z,41.58
2018-04-14T07:21:17.044Z,41.20
2018-04-14T07:23:44.510Z,38.90
2018-04-14T07:26:12.002Z,41.17
2018-04-14T07:28:39.468Z,40.05
2018-04-14T07:31:06.920Z,38.03
2018-04-14T07:33:34.395Z,41.28
2018-04-14T07:36:01.871Z,41.90
2018-04-14T07:38:29.335Z,38.67
2018-04-14T07:40:56.827Z,40.92
2018-04-14T07:43:24.286Z,40.78
2018-04-14T07:45:51.756Z,40.97
2018-04-14T07:48:19.211Z,39.85
2018-04-14T07:50:46.660Z,41.05
2018-04-14T07:53:14.248Z,39.45
2018-04-14T07:55:41.722Z,39.10
2018-04-14T07:58:09.188Z,39.25
2018-04-14T08:00:36.654Z,39.37
2018-04-14T08:03:04.127Z,38.38
2018-04-14T08:05:31.591Z,40.25
2018-04-14T08:07:59.082Z,39.70
2018-04-14T08:10:26.535Z,41.05
2018-04-14T08:12:54.074Z,40.10
2018-04-14T08:15:21.580Z,39.22
2018-04-14T08:17:49.066Z,39.28
2018-04-14T08:20:16.531Z,39.35
2018-04-14T08:22:44.037Z,40.25
2018-04-14T08:25:12.268Z,37.50
2018-04-14T08:27:39.741Z,38.33
2018-04-14T08:30:07.271Z,38.13
2018-04-14T08:32:34.718Z,39.97
2018-04-14T08:35:02.191Z,39.05
2018-04-14T08:37:29.722Z,39.63
2018-04-14T08:39:57.104Z,41.20
2018-04-14T08:42:24.560Z,41.63
2018-04-14T08:44:52.008Z,39.15
2018-04-14T08:47:19.485Z,40.45
2018-04-14T08:49:46.934Z,39.53
2018-04-14T08:52:14.409Z,40.63
2018-04-14T08:54:41.932Z,39.67
2018-04-14T08:57:09.476Z,38.53
2018-04-14T08:59:36.982Z,39.08
2018-04-14T09:02:04.440Z,40.90
2018-04-14T09:04:31.988Z,38.35
2018-04-14T09:06:59.483Z,40.35
2018-04-14T09:09:27.028Z,41.27
2018-04-14T09:11:54.500Z,41.15
2018-04-14T09:14:21.956Z,41.70
2018-04-14T09:16:49.412Z,41.15
2018-04-14T09:19:16.931Z,40.97
2018-04-14T09:21:44.410Z,38.63
2018-04-14T09:24:11.872Z,41.10
2018-04-14T09:26:39.342Z,40.47
2018-04-14T09:29:06.800Z,40.35
2018-04-14T09:31:34.290Z,40.55
2018-04-14T09:34:01.738Z,36.92
2018-04-14T09:36:29.198Z,37.42
2018-04-14T09:38:56.668Z,37.17
2018-04-14T09:41:24.129Z,38.40
2018-04-14T09:43:51.572Z,39.47
2018-04-14T09:46:19.028Z,38.00
2018-04-14T09:48:47.276Z,38.28
2018-04-14T09:51:14.862Z,38.28
2018-04-14T09:53:42.419Z,38.40
2018-04-14T09:56:09.869Z,36.78
2018-04-14T09:58:37.316Z,37.33
2018-04-14T10:01:11.263Z,36.30
2018-04-14T10:03:38.707Z,36.08
2018-04-14T10:06:06.165Z,36.50
2018-04-14T10:08:33.699Z,36.75
2018-04-14T10:11:01.252Z,37.80
2018-04-14T10:13:28.734Z,35.08
2018-04-14T10:15:56.192Z,36.60
2018-04-14T10:18:23.641Z,36.60
2018-04-14T10:20:51.114Z,37.13
2018-04-14T10:23:18.586Z,38.20
2018-04-14T10:25:46.054Z,37.97
2018-04-14T10:28:13.536Z,36.60
2018-04-14T10:30:40.996Z,36.83
2018-04-14T10:33:08.488Z,37.80
2018-04-14T10:35:36.040Z,38.22
2018-04-14T10:38:03.561Z,38.42
2018-04-14T10:40:31.085Z,37.15
2018-04-14T10:42:58.545Z,37.33
2018-04-14T10:45:26.046Z,37.77
2018-04-14T10:47:53.609Z,38.55
2018-04-14T10:50:21.164Z,38.53
2018-04-14T10:52:48.636Z,36.65
2018-04-14T10:55:16.108Z,36.80
2018-04-14T10:57:43.665Z,36.97
2018-04-14T11:00:11.159Z,37.78
2018-04-14T11:02:38.616Z,37.03
2018-04-14T11:05:06.114Z,38.45
2018-04-14T11:07:33.660Z,37.10
2018-04-14T11:10:01.136Z,36.75
2018-04-14T11:12:28.580Z,37.85
2018-04-14T11:14:56.090Z,37.60
2018-04-14T11:17:23.640Z,38.13
2018-04-14T11:19:51.127Z,36.85
2018-04-14T11:22:18.594Z,36.42
2018-04-14T11:24:46.081Z,48.87
2018-04-14T11:27:13.532Z,36.50
2018-04-14T11:29:40.984Z,37.10
2018-04-14T11:32:08.623Z,36.25
2018-04-14T11:34:36.823Z,35.70
2018-04-14T11:37:04.296Z,36.53
2018-04-14T11:39:31.814Z,36.67
2018-04-14T11:41:59.278Z,35.50
2018-04-14T11:44:26.742Z,36.30
2018-04-14T11:46:54.207Z,36.80
2018-04-14T11:49:21.694Z,36.30
2018-04-14T11:51:49.132Z,37.72
2018-04-14T11:54:16.620Z,36.20
2018-04-14T11:56:45.601Z,37.90
2018-04-14T11:59:13.113Z,37.65
2018-04-14T12:01:40.568Z,36.83
2018-04-14T12:04:08.025Z,36.30
2018-04-14T12:06:35.486Z,37.65
2018-04-14T12:09:02.944Z,39.05
2018-04-14T12:11:30.414Z,36.88
2018-04-14T12:13:57.861Z,36.97
2018-04-14T12:16:25.372Z,38.35
2018-04-14T12:18:52.824Z,35.33
2018-04-14T12:21:20.290Z,35.47
2018-04-14T12:23:47.791Z,36.92
2018-04-14T12:26:15.258Z,36.95
2018-04-14T12:28:42.747Z,36.10
2018-04-14T12:31:10.261Z,38.28
2018-04-14T12:33:37.708Z,36.90
2018-04-14T12:36:05.943Z,34.33
2018-04-14T12:38:33.411Z,34.30
2018-04-14T12:41:00.859Z,35.67
2018-04-14T12:43:28.318Z,36.20
2018-04-14T12:45:55.803Z,35.90
2018-04-14T12:48:23.252Z,36.63
2018-04-14T12:50:50.721Z,37.85
2018-04-14T12:53:18.182Z,36.30
2018-04-14T12:55:46.404Z,37.13
2018-04-14T12:58:13.878Z,37.17
2018-04-14T13:00:41.334Z,35.90
2018-04-14T13:03:08.819Z,35.03
2018-04-14T13:05:36.282Z,36.25
2018-04-14T13:08:03.772Z,37.63
2018-04-14T13:10:31.246Z,36.45
2018-04-14T13:12:58.727Z,34.65
2018-04-14T13:15:26.203Z,36.47
2018-04-14T13:17:53.764Z,36.15
2018-04-14T13:20:21.234Z,34.58
2018-04-14T13:22:48.746Z,36.15
2018-04-14T13:25:16.278Z,33.80
2018-04-14T13:27:43.839Z,35.20
2018-04-14T13:30:11.312Z,35.83
2018-04-14T13:32:38.874Z,34.13
2018-04-14T13:35:06.346Z,34.70
2018-04-14T13:37:33.808Z,34.40
2018-04-14T13:40:01.270Z,35.10
2018-04-14T13:42:28.749Z,34.03
2018-04-14T13:44:56.196Z,33.33
2018-04-14T13:47:23.652Z,34.50
2018-04-14T13:49:51.108Z,39.08
2018-04-14T13:52:18.555Z,39.60
2018-04-14T13:54:46.802Z,38.95
2018-04-14T13:57:14.248Z,36.03
2018-04-14T13:59:41.726Z,37.33
2018-04-14T14:02:09.185Z,36.80
2018-04-14T14:04:36.660Z,37.33
2018-04-14T14:07:04.150Z,37.42
2018-04-14T14:09:31.595Z,37.15
2018-04-14T14:11:59.052Z,37.85
2018-04-14T14:14:26.515Z,36.80
2018-04-14T14:16:55.791Z,38.33
2018-04-14T14:19:23.252Z,35.05
2018-04-14T14:21:50.813Z,33.72
2018-04-14T14:24:18.382Z,33.67
2018-04-14T14:26:45.823Z,34.25
2018-04-14T14:29:13.291Z,37.55
2018-04-14T14:31:40.762Z,34.57
2018-04-14T14:34:08.244Z,34.92
2018-04-14T14:36:35.728Z,34.08
2018-04-14T14:39:03.187Z,33.37
2018-04-14T14:41:30.652Z,33.20
2018-04-14T14:43:58.120Z,32.70
2018-04-14T14:46:25.572Z,34.55
2018-04-14T14:48:53.040Z,36.30
2018-04-14T14:51:20.507Z,37.45
2018-04-14T14:53:47.979Z,38.17
2018-04-14T14:56:15.449Z,38.28
2018-04-14T14:58:42.914Z,38.00
2018-04-14T15:01:11.139Z,36.97
2018-04-14T15:03:38.605Z,38.23
2018-04-14T15:06:06.100Z,37.20
2018-04-14T15:08:35.147Z,36.22
2018-04-14T15:11:03.390Z,36.10
2018-04-14T15:13:30.939Z,34.60
2018-04-14T15:15:58.392Z,32.20
2018-04-14T15:18:25.847Z,35.47
2018-04-14T15:20:53.314Z,34.23
2018-04-14T15:23:20.771Z,35.87
2018-04-14T15:25:48.979Z,34.67
2018-04-14T15:28:16.467Z,33.60
2018-04-14T15:30:43.942Z,32.93
2018-04-14T15:33:11.385Z,35.10
2018-04-14T15:35:38.951Z,34.77
2018-04-14T15:38:06.408Z,32.97
2018-04-14T15:40:34.652Z,36.13
2018-04-14T15:43:02.175Z,36.90
2018-04-14T15:45:30.400Z,36.17
2018-04-14T15:47:57.937Z,33.97
2018-04-14T15:50:25.399Z,35.80
2018-04-14T15:52:52.858Z,37.27
2018-04-14T15:55:21.082Z,34.50
2018-04-14T15:57:48.582Z,35.17
2018-04-14T16:00:16.158Z,34.67
2018-04-14T16:02:43.670Z,33.67
2018-04-14T16:05:11.922Z,34.87
2018-04-14T16:07:39.394Z,37.03
2018-04-14T16:24:50.523Z,32.90
2018-04-14T16:27:18.011Z,34.03
2018-04-14T16:29:45.572Z,34.70
2018-04-14T17:04:06.224Z,39.50
2018-04-14T17:06:33.736Z,35.47
2018-04-14T17:09:01.211Z,36.40
2018-04-14T17:11:28.656Z,35.30
2018-04-14T17:13:56.143Z,37.43
2018-04-14T18:00:30.997Z,34.00
2018-04-14T18:02:58.468Z,38.13
2018-04-14T18:05:25.911Z,40.20
2018-04-14T18:07:53.389Z,38.37
2018-04-14T18:10:20.844Z,36.10
2018-04-14T18:12:48.315Z,36.20
2018-04-14T18:15:15.814Z,35.00
2018-04-14T18:17:43.283Z,34.07
2018-04-14T18:20:10.743Z,34.87
2018-04-14T18:22:38.198Z,33.47
2018-04-14T18:25:05.663Z,33.57
2018-04-14T18:27:33.109Z,33.20
2018-04-14T18:30:00.655Z,33.60
2018-04-14T18:32:28.905Z,31.77
2018-04-14T18:34:56.368Z,32.90
2018-04-14T18:37:23.820Z,30.40
2018-04-14T18:39:51.282Z,32.77
2018-04-14T18:42:18.738Z,32.17
2018-04-14T18:44:46.988Z,30.90
2018-04-14T18:47:14.458Z,33.10
2018-04-14T18:49:41.968Z,31.40
2018-04-14T18:52:09.493Z,31.13
2018-04-14T18:54:36.955Z,32.50
2018-04-14T18:57:04.417Z,33.40
2018-04-14T18:59:31.911Z,32.30
2018-04-14T19:01:59.470Z,32.43
2018-04-14T19:07:17.550Z,32.90
2018-04-14T19:09:45.009Z,32.20
2018-04-14T19:12:12.513Z,34.40
2018-04-14T19:14:39.983Z,32.23
2018-04-14T19:17:07.433Z,32.97
2018-04-14T19:19:35.003Z,33.07
2018-04-14T19:22:02.470Z,30.13
2018-04-14T19:24:30.056Z,31.93
2018-04-14T19:26:57.511Z,32.30
2018-04-14T19:29:25.090Z,30.33
2018-04-14T19:31:52.571Z,31.33
2018-04-14T19:34:20.143Z,32.23
2018-04-14T19:36:47.706Z,30.73
2018-04-14T19:39:15.374Z,30.17
2018-04-14T19:41:42.831Z,32.90
2018-04-14T19:44:10.304Z,34.63
2018-04-14T19:46:37.770Z,34.43
2018-04-14T19:49:06.055Z,33.13
2018-04-14T19:51:33.508Z,33.50
2018-04-14T19:54:01.015Z,34.37
2018-04-14T19:56:28.576Z,31.00
2018-04-14T19:58:56.044Z,33.27
2018-04-14T20:01:23.517Z,32.27
2018-04-14T20:03:50.968Z,31.53
2018-04-14T20:06:18.435Z,30.90
2018-04-14T20:08:45.924Z,33.90
2018-04-14T20:11:13.405Z,29.80
2018-04-14T20:13:40.879Z,31.93
2018-04-14T20:16:08.358Z,31.40
2018-04-14T20:18:36.571Z,36.55
2018-04-14T20:21:04.088Z,33.10
2018-04-14T20:23:31.575Z,31.73
2018-04-14T20:25:59.142Z,32.10
2018-04-14T20:28:26.604Z,32.97
2018-04-14T20:30:54.060Z,38.33
2018-04-14T20:33:21.561Z,38.47
2018-04-14T20:35:49.012Z,39.05
2018-04-14T20:38:16.489Z,36.73
2018-04-14T20:40:44.062Z,34.07
2018-04-14T20:43:11.539Z,32.33
2018-04-14T20:45:39.007Z,38.53
2018-04-14T20:48:06.484Z,31.63
2018-04-14T20:50:34.028Z,34.60
2018-04-14T20:53:01.503Z,34.77
2018-04-14T20:55:28.966Z,33.17
2018-04-14T20:57:56.439Z,33.00
2018-04-14T21:00:23.917Z,32.40
2018-04-14T21:02:51.367Z,33.87
2018-04-14T21:05:18.867Z,33.30
2018-04-14T21:07:46.347Z,33.47
2018-04-14T21:10:14.579Z,32.00
2018-04-14T21:12:42.095Z,33.50
2018-04-14T21:15:09.643Z,33.30
2018-04-14T21:17:37.117Z,37.50
2018-04-14T21:20:04.608Z,34.43
2018-04-14T21:22:32.065Z,36.80
2018-04-14T21:25:00.261Z,33.70
2018-04-14T21:27:27.729Z,33.80
2018-04-14T21:29:55.188Z,31.77
2018-04-14T21:32:22.658Z,33.30
2018-04-14T21:34:50.105Z,31.87
2018-04-14T21:37:17.586Z,32.13
2018-04-14T21:39:45.051Z,33.03
2018-04-14T21:42:12.515Z,33.00
2018-04-14T21:44:40.015Z,32.20
2018-04-14T21:47:07.472Z,30.80
2018-04-14T21:49:34.923Z,33.97
2018-04-14T21:52:02.421Z,30.87
2018-04-14T21:54:29.900Z,33.17
2018-04-14T21:56:57.359Z,30.83
2018-04-14T21:59:24.846Z,32.70
2018-04-14T22:01:52.329Z,31.40
2018-04-14T22:04:19.776Z,32.33
2018-04-14T22:06:47.236Z,36.72
2018-04-14T22:09:14.732Z,38.58
2018-04-14T22:11:42.185Z,39.90
2018-04-14T22:14:09.683Z,32.30
2018-04-14T22:16:37.159Z,32.27
2018-04-14T22:19:04.618Z,33.27
2018-04-14T22:21:32.080Z,33.33
2018-04-14T22:23:59.550Z,31.37
2018-04-14T22:26:27.071Z,33.87
2018-04-14T22:28:54.529Z,32.40
2018-04-14T22:31:22.011Z,31.13
2018-04-14T22:33:49.476Z,29.93
2018-04-14T22:36:16.955Z,32.17
2018-04-14T22:38:44.523Z,31.10
2018-04-14T22:41:12.095Z,32.40
2018-04-14T22:43:39.567Z,31.73
2018-04-14T22:46:07.124Z,32.47
2018-04-14T22:48:34.595Z,31.83
2018-04-14T22:51:02.059Z,32.60
2018-04-14T22:53:29.651Z,31.97
2018-04-14T22:55:57.126Z,34.10
2018-04-14T22:58:24.705Z,31.93
2018-04-14T23:00:52.175Z,31.77
2018-04-14T23:03:19.755Z,32.93
2018-04-14T23:05:47.234Z,32.50
2018-04-14T23:08:14.784Z,33.03
2018-04-14T23:10:42.255Z,32.77
2018-04-14T23:13:09.742Z,32.50
2018-04-14T23:15:37.215Z,31.00
2018-04-14T23:18:04.768Z,32.47
2018-04-14T23:20:32.240Z,32.93
2018-04-14T23:22:59.695Z,33.70
2018-04-14T23:25:27.183Z,30.97
2018-04-14T23:27:54.656Z,32.47
2018-04-14T23:30:22.128Z,34.17
2018-04-14T23:32:49.596Z,32.47
2018-04-14T23:35:17.063Z,31.03
2018-04-14T23:37:44.536Z,31.30
2018-04-14T23:40:12.031Z,32.30
2018-04-14T23:42:39.594Z,30.67
2018-04-14T23:45:07.081Z,32.70
2018-04-14T23:47:35.327Z,30.70
2018-04-14T23:50:02.830Z,31.10
2018-04-14T23:52:30.384Z,32.83
2018-04-14T23:54:57.848Z,31.60
2018-04-14T23:57:25.322Z,31.43
2018-04-14T23:59:52.787Z,30.57
